createdAt,value
2022-09-23T00:01:19.133Z,8.50
2022-09-23T00:03:46.496Z,8.39
2022-09-23T00:06:19.228Z,8.36
2022-09-23T00:08:46.495Z,8.33
2022-09-23T00:11:16.171Z,8.36
2022-09-23T00:13:45.137Z,8.37
2022-09-23T00:16:14.735Z,8.39
2022-09-23T00:18:42.397Z,8.34
2022-09-23T00:21:12.575Z,8.33
2022-09-23T00:23:40.533Z,8.30
2022-09-23T00:26:09.425Z,8.33
2022-09-23T00:28:45.840Z,8.34
2022-09-23T00:31:15.512Z,8.35
2022-09-23T00:33:42.746Z,8.33
2022-09-23T00:36:12.049Z,8.33
2022-09-23T00:38:38.942Z,8.23
2022-09-23T00:41:06.351Z,8.24
2022-09-23T00:43:42.496Z,8.23
2022-09-23T00:46:13.576Z,8.14
2022-09-23T00:48:42.773Z,8.23
2022-09-23T00:51:14.513Z,8.25
2022-09-23T00:53:41.730Z,8.22
2022-09-23T00:56:11.778Z,8.13
2022-09-23T00:58:40.941Z,8.07
2022-09-23T01:01:08.059Z,7.85
2022-09-23T01:03:35.151Z,7.97
2022-09-23T01:06:01.902Z,7.91
2022-09-23T01:08:29.090Z,7.97
2022-09-23T01:11:22.996Z,7.90
2022-09-23T01:14:22.018Z,7.93
2022-09-23T01:16:58.208Z,7.97
2022-09-23T01:19:51.364Z,7.97
2022-09-23T01:22:48.169Z,7.96
2022-09-23T01:25:33.265Z,7.91
2022-09-23T01:28:20.689Z,7.89
2022-09-23T01:30:59.744Z,7.83
2022-09-23T01:33:45.281Z,7.89
2022-09-23T01:36:39.485Z,7.87
2022-09-23T01:39:37.187Z,7.66
2022-09-23T01:42:22.942Z,7.63
2022-09-23T01:44:59.944Z,7.67
2022-09-23T01:47:36.219Z,7.53
2022-09-23T01:50:44.021Z,7.73
2022-09-23T01:53:20.757Z,7.83
2022-09-23T01:55:57.253Z,7.82
2022-09-23T01:58:45.121Z,7.79
2022-09-23T02:01:18.561Z,7.77
2022-09-23T02:03:51.164Z,7.58
2022-09-23T02:06:23.280Z,7.81
2022-09-23T02:09:00.163Z,7.76
2022-09-23T02:11:27.603Z,7.80
2022-09-23T02:14:06.902Z,7.65
2022-09-23T02:16:41.153Z,7.89
2022-09-23T02:19:11.506Z,7.83
2022-09-23T02:21:42.085Z,7.68
2022-09-23T02:24:16.768Z,7.50
2022-09-23T02:26:54.934Z,7.62
2022-09-23T02:29:29.359Z,7.57
2022-09-23T02:32:46.661Z,7.55
2022-09-23T02:35:18.078Z,7.60
2022-09-23T02:38:01.783Z,7.35
2022-09-23T02:40:40.913Z,7.50
2022-09-23T02:43:10.386Z,7.57
2022-09-23T02:45:39.443Z,7.48
2022-09-23T02:48:14.900Z,7.52
2022-09-23T02:50:42.234Z,7.44
2022-09-23T02:53:09.078Z,7.45
2022-09-23T02:55:36.128Z,7.57
2022-09-23T02:58:05.391Z,7.44
2022-09-23T03:00:38.568Z,7.08
2022-09-23T03:03:40.782Z,7.17
2022-09-23T03:06:27.482Z,6.95
2022-09-23T03:09:13.201Z,7.18
2022-09-23T03:11:46.997Z,7.18
2022-09-23T03:14:39.209Z,7.22
2022-09-23T03:17:19.956Z,7.10
2022-09-23T03:20:06.978Z,7.07
2022-09-23T03:22:39.358Z,7.04
2022-09-23T03:25:10.778Z,6.89
2022-09-23T03:27:39.138Z,6.90
2022-09-23T03:30:07.517Z,6.82
2022-09-23T03:32:36.437Z,6.99
2022-09-23T03:35:05.328Z,6.95
2022-09-23T03:37:41.029Z,7.05
2022-09-23T03:40:15.518Z,6.91
2022-09-23T03:42:42.565Z,6.96
2022-09-23T03:45:17.029Z,6.90
2022-09-23T03:47:44.186Z,7.06
2022-09-23T03:50:13.396Z,6.99
2022-09-23T03:52:40.487Z,6.89
2022-09-23T03:55:08.095Z,7.02
2022-09-23T03:57:34.988Z,6.91
2022-09-23T04:00:02.084Z,7.02
2022-09-23T04:02:39.138Z,7.03
2022-09-23T04:05:07.191Z,7.06
2022-09-23T04:07:34.195Z,7.10
2022-09-23T04:10:00.965Z,7.04
2022-09-23T04:12:27.668Z,7.08
2022-09-23T04:14:54.391Z,7.06
2022-09-23T04:17:21.112Z,6.85
2022-09-23T04:19:47.835Z,6.73
2022-09-23T04:22:14.685Z,6.88
2022-09-23T04:24:41.318Z,6.95
2022-09-23T04:27:07.933Z,6.82
2022-09-23T04:29:34.633Z,7.00
2022-09-23T04:32:02.561Z,6.99
2022-09-23T04:34:29.280Z,7.00
2022-09-23T04:36:55.985Z,6.92
2022-09-23T04:39:22.678Z,6.71
2022-09-23T04:41:49.444Z,7.17
2022-09-23T04:44:16.416Z,7.46
2022-09-23T04:46:47.529Z,7.78
2022-09-23T04:49:15.738Z,7.99
2022-09-23T04:51:43.747Z,7.95
2022-09-23T04:54:11.975Z,7.94
2022-09-23T04:56:39.884Z,8.17
2022-09-23T04:59:07.471Z,8.19
2022-09-23T05:01:36.256Z,8.21
2022-09-23T05:04:07.200Z,8.19
2022-09-23T05:06:35.289Z,7.98
2022-09-23T05:09:05.129Z,8.25
2022-09-23T05:11:32.141Z,7.96
2022-09-23T05:13:59.237Z,8.08
2022-09-23T05:16:27.233Z,8.01
2022-09-23T05:18:54.453Z,7.89
2022-09-23T05:21:23.393Z,7.82
2022-09-23T05:23:55.569Z,7.91
2022-09-23T05:26:25.396Z,7.93
2022-09-23T05:28:53.081Z,7.99
2022-09-23T05:31:29.927Z,8.17
2022-09-23T05:34:00.857Z,8.17
2022-09-23T05:36:33.077Z,8.25
2022-09-23T05:39:11.059Z,8.38
2022-09-23T05:41:38.267Z,8.19
2022-09-23T05:44:08.000Z,8.17
2022-09-23T05:46:38.133Z,8.15
2022-09-23T05:49:06.073Z,8.15
2022-09-23T05:51:38.364Z,8.35
2022-09-23T05:54:05.780Z,8.43
2022-09-23T05:56:36.589Z,8.18
2022-09-23T05:59:04.836Z,8.30
2022-09-23T06:01:35.356Z,8.18
2022-09-23T06:04:15.902Z,8.08
2022-09-23T06:06:44.317Z,8.17
2022-09-23T06:09:14.835Z,8.05
2022-09-23T06:11:47.389Z,8.30
2022-09-23T06:14:17.223Z,8.22
2022-09-23T06:16:50.901Z,8.39
2022-09-23T06:19:29.089Z,8.60
2022-09-23T06:22:04.367Z,8.59
2022-09-23T06:24:56.334Z,8.88
2022-09-23T06:27:54.844Z,8.99
2022-09-23T06:30:45.665Z,9.07
2022-09-23T06:33:48.408Z,9.13
2022-09-23T06:36:47.778Z,9.38
2022-09-23T06:39:35.766Z,9.56
2022-09-23T06:42:29.485Z,9.88
2022-09-23T06:45:03.354Z,10.11
2022-09-23T06:50:25.814Z,10.84
2022-09-23T06:53:19.384Z,11.36
2022-09-23T06:55:49.065Z,11.69
2022-09-23T07:09:01.062Z,13.01
2022-09-23T07:11:48.893Z,12.97
2022-09-23T07:18:10.506Z,12.52
2022-09-23T07:20:58.046Z,12.37
2022-09-23T07:23:25.753Z,12.21
2022-09-23T07:26:01.068Z,12.22
2022-09-23T07:28:28.998Z,12.21
2022-09-23T07:31:39.505Z,12.28
2022-09-23T07:34:19.114Z,12.49
2022-09-23T07:36:55.841Z,12.58
2022-09-23T07:39:31.242Z,12.84
2022-09-23T07:42:18.165Z,13.17
2022-09-23T07:44:45.270Z,13.29
2022-09-23T07:47:14.106Z,13.40
2022-09-23T07:49:41.397Z,13.53
2022-09-23T07:52:24.913Z,13.79
2022-09-23T07:54:51.749Z,14.20
2022-09-23T07:57:26.576Z,14.47
2022-09-23T07:59:53.290Z,14.19
2022-09-23T08:02:33.873Z,14.07
2022-09-23T08:05:00.681Z,14.26
2022-09-23T08:07:37.529Z,14.47
2022-09-23T08:10:20.742Z,14.58
2022-09-23T08:13:36.969Z,14.49
2022-09-23T08:16:12.833Z,14.34
2022-09-23T08:22:03.534Z,15.19
2022-09-23T08:24:33.315Z,15.57
2022-09-23T08:27:14.919Z,15.80
2022-09-23T08:29:44.565Z,15.76
2022-09-23T08:32:14.518Z,15.68
2022-09-23T08:34:41.563Z,15.94
2022-09-23T08:37:19.310Z,16.37
2022-09-23T08:39:49.547Z,16.82
2022-09-23T08:42:30.793Z,17.56
2022-09-23T08:45:09.675Z,18.18
2022-09-23T08:47:47.078Z,17.97
2022-09-23T08:50:33.577Z,17.97
2022-09-23T08:53:08.041Z,18.30
2022-09-23T08:59:43.820Z,18.55
2022-09-23T09:06:16.780Z,19.90
2022-09-23T09:09:33.494Z,19.62
2022-09-23T09:12:10.923Z,18.73
2022-09-23T09:14:58.529Z,18.62
2022-09-23T09:17:35.152Z,18.40
2022-09-23T09:20:36.069Z,18.08
2022-09-23T09:23:37.573Z,18.10
2022-09-23T09:26:06.272Z,18.45
2022-09-23T09:28:51.830Z,19.07
2022-09-23T09:31:33.250Z,19.35
2022-09-23T09:34:36.710Z,19.48
2022-09-23T09:37:12.811Z,19.51
2022-09-23T09:39:39.457Z,19.85
2022-09-23T09:42:07.463Z,20.31
2022-09-23T09:44:48.010Z,20.18
2022-09-23T09:47:28.584Z,20.68
2022-09-23T09:50:11.547Z,20.97
2022-09-23T09:52:38.213Z,21.18
2022-09-23T09:55:13.639Z,21.16
2022-09-23T09:57:49.658Z,21.62
2022-09-23T10:00:25.409Z,22.68
2022-09-23T10:02:55.448Z,23.92
2022-09-23T10:05:33.481Z,24.81
2022-09-23T10:08:21.144Z,25.21
2022-09-23T10:11:06.895Z,25.32
2022-09-23T10:13:33.821Z,24.95
2022-09-23T10:16:03.771Z,23.94
2022-09-23T10:18:47.206Z,23.07
2022-09-23T10:21:16.068Z,22.03
2022-09-23T10:23:52.470Z,22.83
2022-09-23T10:26:45.928Z,24.12
2022-09-23T10:29:33.223Z,24.87
2022-09-23T10:32:25.886Z,24.76
2022-09-23T10:35:24.433Z,24.29
2022-09-23T10:37:54.996Z,24.97
2022-09-23T10:41:02.116Z,24.62
2022-09-23T10:44:11.466Z,24.41
2022-09-23T10:47:02.669Z,23.28
2022-09-23T10:49:38.703Z,22.56
2022-09-23T10:52:36.455Z,22.25
2022-09-23T10:55:09.276Z,22.13
2022-09-23T10:57:44.877Z,22.02
2022-09-23T11:00:29.698Z,22.55
2022-09-23T11:03:09.336Z,23.11
2022-09-23T11:05:38.788Z,23.75
2022-09-23T11:08:24.955Z,23.74
2022-09-23T11:10:57.987Z,23.91
2022-09-23T11:13:42.842Z,23.67
2022-09-23T11:16:31.678Z,23.10
2022-09-23T11:19:15.428Z,23.66
2022-09-23T11:21:50.016Z,24.16
2022-09-23T11:24:25.511Z,24.09
2022-09-23T11:27:18.397Z,23.21
2022-09-23T11:30:12.598Z,23.61
2022-09-23T11:32:59.571Z,23.47
2022-09-23T11:35:35.687Z,23.53
2022-09-23T11:38:15.326Z,23.99
2022-09-23T11:40:49.283Z,23.98
2022-09-23T11:43:39.839Z,23.95
2022-09-23T11:46:32.205Z,24.06
2022-09-23T11:49:03.260Z,24.58
2022-09-23T11:51:39.797Z,24.98
2022-09-23T11:54:20.612Z,24.84
2022-09-23T11:56:56.968Z,23.89
2022-09-23T11:59:43.744Z,23.63
2022-09-23T12:02:30.802Z,23.57
2022-09-23T12:05:08.213Z,23.55
2022-09-23T12:07:56.672Z,23.22
2022-09-23T12:10:43.351Z,22.78
2022-09-23T12:13:20.654Z,22.65
2022-09-23T12:16:14.883Z,22.89
2022-09-23T12:19:01.342Z,22.51
2022-09-23T12:21:51.072Z,22.93
2022-09-23T12:24:36.147Z,23.16
2022-09-23T12:27:46.706Z,23.33
2022-09-23T12:30:24.993Z,23.59
2022-09-23T12:32:52.579Z,23.58
2022-09-23T12:35:37.738Z,23.15
2022-09-23T12:38:14.141Z,22.88
2022-09-23T12:40:43.987Z,23.20
2022-09-23T12:43:31.316Z,23.83
2022-09-23T12:46:27.253Z,24.46
2022-09-23T12:48:57.291Z,23.96
2022-09-23T12:51:34.793Z,23.59
2022-09-23T12:54:04.535Z,23.75
2022-09-23T12:56:31.332Z,23.84
2022-09-23T12:59:16.274Z,24.08
2022-09-23T13:01:49.006Z,24.39
2022-09-23T13:04:46.868Z,23.76
2022-09-23T13:07:17.621Z,23.75
2022-09-23T13:09:51.170Z,23.32
2022-09-23T13:12:39.959Z,23.94
2022-09-23T13:15:36.337Z,23.84
2022-09-23T13:18:21.153Z,23.50
2022-09-23T13:20:52.798Z,23.22
2022-09-23T13:23:20.310Z,23.09
2022-09-23T13:25:48.434Z,23.17
2022-09-23T13:28:53.599Z,23.94
2022-09-23T13:31:21.260Z,24.50
2022-09-23T13:33:59.561Z,24.04
2022-09-23T13:36:26.981Z,24.24
2022-09-23T13:38:53.799Z,23.55
2022-09-23T13:41:23.818Z,23.61
2022-09-23T13:43:59.018Z,23.91
2022-09-23T13:46:32.687Z,24.01
2022-09-23T13:48:59.505Z,23.69
2022-09-23T13:51:30.328Z,23.53
2022-09-23T13:54:02.159Z,23.40
2022-09-23T13:56:31.751Z,23.48
2022-09-23T13:59:23.753Z,23.03
2022-09-23T14:01:50.620Z,22.72
2022-09-23T14:04:25.312Z,22.68
2022-09-23T14:06:53.817Z,22.24
2022-09-23T14:09:24.428Z,21.89
2022-09-23T14:11:52.122Z,21.68
2022-09-23T14:14:29.286Z,21.98
2022-09-23T14:16:57.979Z,21.79
2022-09-23T14:19:25.912Z,21.42
2022-09-23T14:21:54.828Z,21.35
2022-09-23T14:24:32.255Z,21.33
2022-09-23T14:27:15.621Z,20.85
2022-09-23T14:29:47.855Z,21.06
2022-09-23T14:32:21.063Z,20.92
2022-09-23T14:34:50.694Z,21.08
2022-09-23T14:37:57.392Z,21.14
2022-09-23T14:40:53.712Z,21.06
2022-09-23T14:43:26.386Z,21.06
2022-09-23T14:45:56.148Z,21.03
2022-09-23T14:48:32.274Z,20.93
2022-09-23T14:51:05.969Z,20.71
2022-09-23T14:53:43.893Z,20.78
2022-09-23T14:56:19.855Z,20.84
2022-09-23T14:58:58.254Z,20.70
2022-09-23T15:01:31.215Z,20.55
2022-09-23T15:04:36.947Z,20.48
2022-09-23T15:07:09.453Z,20.28
2022-09-23T15:10:16.124Z,20.26
2022-09-23T15:12:46.250Z,20.25
2022-09-23T15:15:14.837Z,20.26
2022-09-23T15:17:41.557Z,20.23
2022-09-23T15:20:21.393Z,20.29
2022-09-23T15:22:50.759Z,20.23
2022-09-23T15:25:55.114Z,20.20
2022-09-23T15:28:25.047Z,20.06
2022-09-23T15:30:51.744Z,20.00
2022-09-23T15:33:36.687Z,19.95
2022-09-23T15:36:03.693Z,19.73
2022-09-23T15:38:30.874Z,19.47
2022-09-23T15:40:57.663Z,19.57
2022-09-23T15:43:26.816Z,19.52
2022-09-23T15:45:57.584Z,19.50
2022-09-23T15:48:32.158Z,19.33
2022-09-23T15:51:04.141Z,19.34
2022-09-23T15:53:31.528Z,19.19
2022-09-23T15:56:00.024Z,19.16
2022-09-23T19:51:48.290Z,14.17
2022-09-23T19:54:20.602Z,14.12
2022-09-23T19:56:48.648Z,13.88
2022-09-23T19:59:18.800Z,13.86
2022-09-23T20:01:46.413Z,13.70
2022-09-23T20:04:13.290Z,13.45
2022-09-23T20:06:42.576Z,13.54
2022-09-23T20:09:09.328Z,13.28
2022-09-23T20:11:36.133Z,13.51
2022-09-23T20:14:05.801Z,13.68
2022-09-23T20:16:35.936Z,13.57
2022-09-23T20:19:04.262Z,13.59
2022-09-23T20:21:31.433Z,13.59
2022-09-23T20:23:58.547Z,13.48
2022-09-23T20:26:44.196Z,13.62
2022-09-23T20:29:14.397Z,13.63
2022-09-23T20:31:41.521Z,13.43
2022-09-23T20:34:10.383Z,13.42
2022-09-23T20:36:37.411Z,13.22
2022-09-23T20:39:09.522Z,13.22
2022-09-23T20:41:38.975Z,12.97
2022-09-23T20:44:09.606Z,13.02
2022-09-23T20:46:36.564Z,13.14
2022-09-23T20:49:04.216Z,13.00
2022-09-23T20:51:33.162Z,13.21
2022-09-23T20:54:00.159Z,13.08
2022-09-23T20:56:27.510Z,13.13
2022-09-23T20:58:54.147Z,12.79
2022-09-23T21:01:21.423Z,12.94
2022-09-23T21:03:51.308Z,12.89
2022-09-23T21:06:19.434Z,12.66
2022-09-23T21:08:46.867Z,12.85
2022-09-23T21:11:16.260Z,12.99
2022-09-23T21:13:50.804Z,12.89
2022-09-23T21:16:19.744Z,12.78
2022-09-23T21:18:47.944Z,12.66
2022-09-23T21:21:15.085Z,12.70
2022-09-23T21:23:43.441Z,12.75
2022-09-23T21:26:12.497Z,12.79
2022-09-23T21:28:43.837Z,12.67
2022-09-23T21:31:25.674Z,12.87
2022-09-23T21:33:58.959Z,12.88
2022-09-23T21:36:27.377Z,12.76
2022-09-23T21:38:55.493Z,12.81
2022-09-23T21:41:23.582Z,12.92
2022-09-23T21:43:50.855Z,12.78
2022-09-23T21:46:20.548Z,12.92
2022-09-23T21:48:52.844Z,12.84
2022-09-23T21:51:20.879Z,12.88
2022-09-23T21:53:58.208Z,12.70
2022-09-23T21:56:27.495Z,12.77
2022-09-23T21:58:56.014Z,12.69
2022-09-23T22:01:24.960Z,12.71
2022-09-23T22:03:54.041Z,12.52
2022-09-23T22:06:27.098Z,12.76
2022-09-23T22:08:59.021Z,12.73
2022-09-23T22:11:49.872Z,12.66
2022-09-23T22:14:18.904Z,12.58
2022-09-23T22:16:48.503Z,12.62
2022-09-23T22:19:15.531Z,12.56
2022-09-23T22:21:44.004Z,12.51
2022-09-23T22:24:11.676Z,12.45
2022-09-23T22:26:49.689Z,12.38
2022-09-23T22:29:35.778Z,12.08
2022-09-23T22:32:24.518Z,11.99
2022-09-23T22:34:52.689Z,12.24
2022-09-23T22:37:27.896Z,12.25
2022-09-23T22:39:54.644Z,12.33
2022-09-23T22:42:22.258Z,12.36
2022-09-23T22:44:49.460Z,12.16
2022-09-23T22:47:17.876Z,12.38
2022-09-23T22:49:46.039Z,12.23
2022-09-23T22:52:15.089Z,12.38
2022-09-23T22:54:42.119Z,12.35
2022-09-23T22:57:09.784Z,12.29
2022-09-23T22:59:37.607Z,12.11
2022-09-23T23:02:06.466Z,12.31
2022-09-23T23:04:33.500Z,12.37
2022-09-23T23:07:00.126Z,12.36
2022-09-23T23:09:26.791Z,12.29
2022-09-23T23:11:53.399Z,12.26
2022-09-23T23:14:20.390Z,12.19
2022-09-23T23:16:47.555Z,12.09
2022-09-23T23:19:16.968Z,11.96
2022-09-23T23:21:45.311Z,12.07
2022-09-23T23:24:20.392Z,12.03
2022-09-23T23:26:47.396Z,11.98
2022-09-23T23:29:16.820Z,11.94
2022-09-23T23:31:43.992Z,11.92
2022-09-23T23:34:13.044Z,11.97
2022-09-23T23:36:40.267Z,12.07
2022-09-23T23:39:07.894Z,12.17
2022-09-23T23:41:34.644Z,12.27
2022-09-23T23:44:02.652Z,12.23
2022-09-23T23:46:31.134Z,12.31
2022-09-23T23:48:59.106Z,12.18
2022-09-23T23:51:26.952Z,12.21
2022-09-23T23:53:54.595Z,12.12
2022-09-23T23:56:23.315Z,12.06
2022-09-23T23:58:56.839Z,12.07
